createdAt,value
2017-08-11T00:00:23.929Z,14.90
2017-08-11T00:02:51.536Z,16.40
2017-08-11T00:05:19.204Z,15.80
2017-08-11T00:07:46.811Z,15.47
2017-08-11T00:10:14.415Z,13.90
2017-08-11T00:12:42.119Z,14.20
2017-08-11T00:15:09.733Z,14.23
2017-08-11T00:17:37.344Z,13.70
2017-08-11T00:20:05.011Z,15.80
2017-08-11T00:22:32.628Z,14.03
2017-08-11T00:25:00.852Z,15.57
2017-08-11T00:27:28.520Z,14.83
2017-08-11T00:29:56.117Z,15.23
2017-08-11T00:32:23.731Z,14.27
2017-08-11T00:34:51.407Z,14.63
2017-08-11T00:37:19.011Z,15.10
2017-08-11T00:39:46.623Z,15.80
2017-08-11T00:42:14.312Z,14.63
2017-08-11T00:44:41.911Z,13.70
2017-08-11T00:47:09.515Z,15.73
2017-08-11T00:49:37.144Z,14.43
2017-08-11T00:52:04.751Z,15.53
2017-08-11T00:54:32.357Z,15.73
2017-08-11T00:57:00.011Z,16.10
2017-08-11T00:59:27.606Z,14.30
2017-08-11T01:01:55.237Z,13.93
2017-08-11T01:04:22.903Z,14.63
2017-08-11T01:06:50.557Z,14.10
2017-08-11T01:09:18.156Z,14.77
2017-08-11T01:11:45.820Z,14.40
2017-08-11T01:14:13.426Z,16.40
2017-08-11T01:16:41.041Z,13.60
2017-08-11T01:19:08.714Z,14.20
2017-08-11T01:21:36.339Z,15.87
2017-08-11T01:24:04.032Z,13.03
2017-08-11T01:26:31.711Z,14.77
2017-08-11T01:28:59.335Z,14.27
2017-08-11T01:31:26.951Z,14.20
2017-08-11T01:33:54.626Z,13.90
2017-08-11T01:36:22.240Z,15.00
2017-08-11T01:38:49.846Z,14.03
2017-08-11T01:41:17.497Z,15.47
2017-08-11T01:43:45.096Z,12.00
2017-08-11T01:46:12.693Z,13.40
2017-08-11T01:48:40.363Z,13.90
2017-08-11T01:51:07.961Z,14.60
2017-08-11T01:53:35.650Z,14.50
2017-08-11T01:56:03.328Z,14.37
2017-08-11T01:58:30.925Z,13.13
2017-08-11T02:00:58.531Z,14.40
2017-08-11T02:03:26.203Z,12.77
2017-08-11T02:05:53.822Z,14.50
2017-08-11T02:08:21.483Z,12.37
2017-08-11T02:10:50.132Z,12.60
2017-08-11T02:13:17.762Z,13.10
2017-08-11T02:15:45.364Z,15.17
2017-08-11T02:18:13.036Z,13.60
2017-08-11T02:20:40.668Z,13.03
2017-08-11T02:23:08.291Z,13.40
2017-08-11T02:25:35.953Z,12.67
2017-08-11T02:28:03.560Z,14.47
2017-08-11T02:30:31.158Z,12.53
2017-08-11T02:32:58.800Z,12.10
2017-08-11T02:35:26.381Z,13.13
2017-08-11T02:37:54.091Z,13.77
2017-08-11T02:40:21.764Z,15.07
2017-08-11T02:42:49.356Z,11.97
2017-08-11T02:45:16.980Z,11.13
2017-08-11T02:47:44.664Z,11.70
2017-08-11T02:50:12.261Z,12.67
2017-08-11T02:52:39.884Z,12.20
2017-08-11T02:55:07.548Z,12.53
2017-08-11T02:57:35.155Z,13.60
2017-08-11T03:00:02.775Z,13.90
2017-08-11T03:02:30.440Z,13.87
2017-08-11T03:04:58.056Z,15.20
2017-08-11T03:07:25.661Z,13.73
2017-08-11T03:09:53.409Z,13.90
2017-08-11T03:12:21.020Z,12.80
2017-08-11T03:14:48.655Z,13.93
2017-08-11T03:17:16.314Z,11.90
2017-08-11T03:19:43.921Z,15.37
2017-08-11T03:22:11.521Z,11.50
2017-08-11T03:24:39.195Z,10.70
2017-08-11T03:27:06.827Z,12.07
2017-08-11T03:29:34.433Z,12.40
2017-08-11T03:32:02.161Z,10.57
2017-08-11T03:34:29.761Z,10.93
2017-08-11T03:36:57.357Z,9.30
2017-08-11T03:39:25.078Z,10.17
2017-08-11T03:41:52.698Z,10.70
2017-08-11T03:44:20.306Z,10.67
2017-08-11T03:46:47.965Z,10.60
2017-08-11T03:49:15.543Z,9.47
2017-08-11T03:51:43.136Z,10.97
2017-08-11T03:54:10.800Z,9.10
2017-08-11T03:56:38.419Z,10.10
2017-08-11T03:59:06.033Z,9.30
2017-08-11T04:01:33.679Z,9.17
2017-08-11T04:04:01.292Z,8.33
2017-08-11T04:06:28.895Z,9.17
2017-08-11T04:08:56.560Z,7.73
2017-08-11T04:11:24.253Z,8.90
2017-08-11T04:13:51.864Z,8.87
2017-08-11T04:16:19.530Z,7.20
2017-08-11T04:18:47.145Z,7.30
2017-08-11T04:21:14.736Z,7.43
2017-08-11T04:23:42.392Z,6.00
2017-08-11T04:26:09.999Z,6.93
2017-08-11T04:28:37.606Z,7.10
2017-08-11T04:31:05.293Z,7.30
2017-08-11T04:33:32.959Z,7.07
2017-08-11T04:36:00.554Z,7.40
2017-08-11T04:38:28.209Z,6.87
2017-08-11T04:40:55.818Z,7.20
2017-08-11T04:43:23.437Z,6.30
2017-08-11T04:45:51.068Z,6.20
2017-08-11T04:48:18.670Z,7.83
2017-08-11T04:50:46.292Z,7.13
2017-08-11T04:53:13.938Z,5.87
2017-08-11T04:55:41.533Z,7.40
2017-08-11T04:58:09.191Z,6.33
2017-08-11T05:00:36.850Z,5.83
2017-08-11T05:03:04.462Z,5.53
2017-08-11T05:05:32.061Z,4.83
2017-08-11T05:07:59.705Z,5.97
2017-08-11T05:10:27.378Z,5.07
2017-08-11T05:12:55.000Z,4.67
2017-08-11T05:15:22.654Z,5.00
2017-08-11T05:17:50.241Z,5.60
2017-08-11T05:20:17.847Z,6.90
2017-08-11T05:22:45.593Z,7.40
2017-08-11T05:25:13.212Z,4.53
2017-08-11T05:27:40.816Z,5.00
2017-08-11T05:30:08.482Z,6.00
2017-08-11T05:32:36.114Z,6.03
2017-08-11T05:35:03.709Z,5.57
2017-08-11T05:37:31.375Z,5.77
2017-08-11T05:39:58.986Z,6.33
2017-08-11T05:42:26.607Z,5.60
2017-08-11T05:44:54.289Z,5.53
2017-08-11T05:47:21.893Z,6.50
2017-08-11T05:49:49.508Z,6.07
2017-08-11T05:52:17.175Z,5.63
2017-08-11T05:54:44.773Z,5.87
2017-08-11T05:57:12.377Z,5.73
2017-08-11T05:59:40.055Z,5.60
2017-08-11T06:02:07.664Z,4.63
2017-08-11T06:04:35.323Z,6.33
2017-08-11T06:07:02.970Z,6.27
2017-08-11T06:09:30.548Z,8.00
2017-08-11T06:11:58.158Z,5.27
2017-08-11T06:14:26.053Z,10.27
2017-08-11T06:16:53.654Z,7.57
2017-08-11T06:19:21.247Z,6.97
2017-08-11T06:21:48.900Z,5.40
2017-08-11T06:24:16.494Z,5.10
2017-08-11T06:26:44.088Z,5.07
2017-08-11T06:29:11.767Z,10.30
2017-08-11T06:31:39.388Z,5.62
2017-08-11T06:34:06.988Z,6.05
2017-08-11T06:36:34.650Z,6.57
2017-08-11T06:39:02.248Z,5.80
2017-08-11T06:41:29.875Z,5.82
2017-08-11T06:43:57.548Z,6.95
2017-08-11T06:46:25.145Z,5.35
2017-08-11T06:48:52.849Z,5.57
2017-08-11T06:51:20.516Z,5.65
2017-08-11T06:53:48.132Z,5.40
2017-08-11T06:56:15.742Z,5.65
2017-08-11T06:58:43.439Z,4.93
2017-08-11T07:01:11.054Z,5.95
2017-08-11T07:03:38.675Z,6.25
2017-08-11T07:06:06.339Z,6.22
2017-08-11T07:08:33.946Z,6.30
2017-08-11T07:11:01.580Z,7.35
2017-08-11T07:13:29.233Z,6.50
2017-08-11T07:15:56.882Z,6.55
2017-08-11T07:18:24.494Z,13.77
2017-08-11T07:20:52.172Z,6.87
2017-08-11T07:23:19.764Z,6.70
2017-08-11T07:25:47.383Z,6.25
2017-08-11T07:28:15.037Z,5.53
2017-08-11T07:30:42.649Z,6.22
2017-08-11T07:33:10.290Z,6.32
2017-08-11T07:35:37.941Z,5.82
2017-08-11T07:38:05.537Z,6.80
2017-08-11T07:40:33.157Z,6.75
2017-08-11T07:43:00.846Z,6.45
2017-08-11T07:45:28.452Z,6.68
2017-08-11T07:47:56.076Z,6.45
2017-08-11T07:50:23.735Z,6.03
2017-08-11T07:52:51.354Z,5.45
2017-08-11T07:55:18.976Z,5.55
2017-08-11T07:57:46.682Z,6.15
2017-08-11T08:00:14.294Z,5.43
2017-08-11T08:02:41.895Z,6.68
2017-08-11T08:05:09.555Z,6.30
2017-08-11T08:07:37.168Z,5.82
2017-08-11T08:10:04.780Z,6.72
2017-08-11T08:12:32.456Z,5.90
2017-08-11T08:15:00.080Z,6.22
2017-08-11T08:17:27.736Z,6.82
2017-08-11T08:19:55.398Z,6.15
2017-08-11T08:22:23.016Z,6.70
2017-08-11T08:24:50.630Z,5.25
2017-08-11T08:27:18.311Z,6.72
2017-08-11T08:29:45.928Z,6.57
2017-08-11T08:32:13.537Z,6.22
2017-08-11T08:34:41.181Z,6.57
2017-08-11T08:37:08.790Z,5.72
2017-08-11T08:39:36.402Z,6.32
2017-08-11T08:42:04.057Z,5.82
2017-08-11T08:44:31.665Z,6.40
2017-08-11T08:46:59.319Z,5.68
2017-08-11T08:49:26.985Z,7.62
2017-08-11T08:51:54.592Z,6.78
2017-08-11T08:54:22.216Z,6.05
2017-08-11T08:56:49.878Z,5.30
2017-08-11T08:59:17.504Z,5.18
2017-08-11T09:01:45.122Z,6.72
2017-08-11T09:04:12.798Z,9.25
2017-08-11T09:06:40.420Z,5.97
2017-08-11T09:09:08.030Z,5.85
2017-08-11T09:11:35.709Z,5.72
2017-08-11T09:14:03.303Z,5.78
2017-08-11T09:16:30.902Z,5.93
2017-08-11T09:18:58.578Z,5.10
2017-08-11T09:21:26.167Z,5.78
2017-08-11T09:23:53.761Z,6.03
2017-08-11T09:26:33.017Z,7.03
2017-08-11T09:29:12.267Z,6.22
2017-08-11T09:31:51.525Z,6.10
2017-08-11T09:34:30.659Z,6.75
2017-08-11T09:36:58.320Z,6.55
2017-08-11T09:39:26.014Z,7.70
2017-08-11T09:41:53.642Z,8.02
2017-08-11T09:44:21.517Z,8.02
2017-08-11T09:46:49.151Z,7.43
2017-08-11T09:49:16.753Z,6.65
2017-08-11T09:51:44.412Z,6.50
2017-08-11T09:54:12.651Z,6.80
2017-08-11T09:56:40.268Z,6.90
2017-08-11T09:59:07.922Z,8.00
2017-08-11T10:01:35.539Z,6.62
2017-08-11T10:04:03.160Z,6.65
2017-08-11T10:06:30.838Z,6.32
2017-08-11T10:08:58.502Z,8.13
2017-08-11T10:11:26.169Z,5.75
2017-08-11T10:13:53.829Z,6.43
2017-08-11T10:16:21.438Z,6.00
2017-08-11T10:18:49.084Z,6.57
2017-08-11T10:21:16.789Z,6.03
2017-08-11T10:23:44.410Z,6.05
2017-08-11T10:26:12.026Z,6.68
2017-08-11T10:28:39.683Z,5.85
2017-08-11T10:31:07.277Z,5.93
2017-08-11T10:33:34.886Z,5.57
2017-08-11T10:36:02.538Z,5.30
2017-08-11T10:38:30.147Z,4.75
2017-08-11T10:40:57.768Z,5.50
2017-08-11T10:43:25.434Z,4.28
2017-08-11T10:45:53.031Z,4.62
2017-08-11T10:48:20.635Z,5.50
2017-08-11T10:50:48.325Z,5.03
2017-08-11T10:53:16.315Z,5.20
2017-08-11T10:55:43.917Z,4.82
2017-08-11T10:58:11.583Z,4.55
2017-08-11T11:00:39.182Z,5.53
2017-08-11T11:03:06.801Z,5.10
2017-08-11T11:05:34.869Z,4.07
2017-08-11T11:08:02.598Z,5.82
2017-08-11T11:10:30.598Z,5.37
2017-08-11T11:12:58.580Z,5.80
2017-08-11T11:15:26.538Z,5.87
2017-08-11T11:17:54.567Z,4.85
2017-08-11T11:20:22.270Z,4.60
2017-08-11T11:22:50.182Z,4.12
2017-08-11T11:25:17.798Z,4.75
2017-08-11T11:27:45.871Z,4.45
2017-08-11T11:30:13.597Z,4.53
2017-08-11T11:32:41.400Z,5.03
2017-08-11T11:35:09.060Z,4.25
2017-08-11T11:37:36.676Z,4.93
2017-08-11T11:40:04.284Z,4.93
2017-08-11T11:42:31.925Z,4.55
2017-08-11T11:44:59.520Z,4.20
2017-08-11T11:47:27.112Z,3.90
2017-08-11T11:49:54.831Z,4.20
2017-08-11T11:52:22.446Z,5.03
2017-08-11T11:54:50.056Z,3.83
2017-08-11T11:57:17.697Z,4.50
2017-08-11T11:59:45.298Z,4.65
2017-08-11T12:02:12.898Z,4.28
2017-08-11T12:04:40.539Z,5.60
2017-08-11T12:07:08.143Z,4.30
2017-08-11T12:09:35.733Z,4.85
2017-08-11T12:12:03.385Z,5.03
2017-08-11T12:14:30.976Z,5.20
2017-08-11T12:16:58.598Z,5.12
2017-08-11T12:19:26.296Z,4.22
2017-08-11T12:21:53.913Z,4.70
2017-08-11T12:24:21.517Z,4.15
2017-08-11T12:26:49.193Z,4.55
2017-08-11T12:29:16.795Z,5.65
2017-08-11T12:31:44.419Z,4.28
2017-08-11T12:34:12.112Z,4.03
2017-08-11T12:36:39.883Z,4.05
2017-08-11T12:39:07.514Z,3.83
2017-08-11T12:41:35.178Z,4.07
2017-08-11T12:44:02.790Z,4.55
2017-08-11T12:46:30.500Z,4.45
2017-08-11T12:48:58.193Z,5.70
2017-08-11T12:51:25.803Z,5.30
2017-08-11T12:53:53.439Z,4.30
2017-08-11T12:56:21.290Z,4.20
2017-08-11T12:58:48.971Z,5.03
2017-08-11T13:01:16.572Z,5.80
2017-08-11T13:03:44.281Z,5.43
2017-08-11T13:06:12.309Z,6.40
2017-08-11T13:08:40.223Z,6.20
2017-08-11T13:11:08.244Z,5.60
2017-08-11T13:13:36.163Z,5.33
2017-08-11T13:16:03.825Z,5.97
2017-08-11T13:18:31.652Z,5.07
2017-08-11T13:20:59.633Z,5.90
2017-08-11T13:23:27.420Z,5.97
2017-08-11T13:25:55.539Z,5.40
2017-08-11T13:28:23.205Z,5.40
2017-08-11T13:30:51.024Z,5.60
2017-08-11T13:33:19.020Z,6.47
2017-08-11T13:35:46.862Z,7.20
2017-08-11T13:38:14.686Z,8.27
2017-08-11T13:40:42.651Z,5.77
2017-08-11T13:43:10.469Z,6.50
2017-08-11T13:45:38.286Z,5.23
2017-08-11T13:48:06.278Z,5.03
2017-08-11T13:50:34.167Z,5.40
2017-08-11T13:53:01.858Z,5.30
2017-08-11T13:55:29.851Z,3.90
2017-08-11T13:57:57.669Z,6.17
2017-08-11T14:00:25.633Z,4.87
2017-08-11T14:02:53.280Z,5.17
2017-08-11T14:05:20.873Z,4.90
2017-08-11T14:07:48.487Z,4.93
2017-08-11T14:10:16.129Z,5.47
2017-08-11T14:12:43.771Z,7.60
2017-08-11T14:15:11.392Z,6.83
2017-08-11T14:17:39.041Z,4.73
2017-08-11T14:20:06.660Z,5.67
2017-08-11T14:22:34.272Z,8.77
2017-08-11T14:25:01.937Z,5.97
2017-08-11T14:27:29.769Z,5.13
2017-08-11T14:29:57.393Z,7.37
2017-08-11T14:32:25.053Z,5.63
2017-08-11T14:34:52.648Z,5.00
2017-08-11T14:37:20.255Z,5.10
2017-08-11T14:39:47.923Z,5.90
2017-08-11T14:42:15.544Z,5.70
2017-08-11T14:44:43.129Z,5.40
2017-08-11T14:47:10.783Z,5.37
2017-08-11T14:49:38.387Z,5.00
2017-08-11T14:52:06.000Z,5.77
2017-08-11T14:54:33.667Z,6.43
2017-08-11T14:57:01.278Z,5.70
2017-08-11T14:59:28.895Z,5.30
2017-08-11T15:01:56.539Z,4.60
2017-08-11T15:04:24.148Z,4.77
2017-08-11T15:06:51.757Z,5.17
2017-08-11T15:09:19.401Z,6.07
2017-08-11T15:11:47.012Z,24.97
2017-08-11T15:14:14.612Z,14.87
2017-08-11T15:16:42.251Z,6.37
2017-08-11T15:19:09.857Z,6.10
2017-08-11T15:21:37.469Z,8.57
2017-08-11T15:24:05.141Z,5.73
2017-08-11T15:26:32.747Z,5.87
2017-08-11T15:29:00.359Z,6.40
2017-08-11T15:31:28.082Z,5.70
2017-08-11T15:33:55.689Z,5.50
2017-08-11T15:36:23.301Z,6.00
2017-08-11T15:38:50.945Z,5.13
2017-08-11T15:41:18.565Z,5.70
2017-08-11T15:43:46.168Z,6.93
2017-08-11T15:46:13.818Z,6.50
2017-08-11T15:48:41.421Z,6.30
2017-08-11T15:51:09.055Z,5.73
2017-08-11T15:53:36.695Z,6.40
2017-08-11T15:56:04.299Z,6.47
2017-08-11T15:58:31.904Z,6.13
2017-08-11T16:00:59.663Z,5.80
2017-08-11T16:03:27.269Z,6.30
2017-08-11T16:05:55.237Z,5.50
2017-08-11T16:08:22.904Z,6.10
2017-08-11T16:10:50.501Z,7.17
2017-08-11T16:13:18.108Z,8.37
2017-08-11T16:15:45.792Z,8.17
2017-08-11T16:18:13.413Z,5.97
2017-08-11T16:20:41.101Z,7.50
2017-08-11T16:23:08.753Z,6.60
2017-08-11T16:25:36.345Z,6.40
2017-08-11T16:28:03.964Z,7.93
2017-08-11T16:30:31.742Z,5.60
2017-08-11T16:32:59.346Z,5.53
2017-08-11T16:35:26.937Z,6.13
2017-08-11T16:37:54.580Z,6.77
2017-08-11T16:40:22.187Z,6.30
2017-08-11T16:42:49.787Z,6.13
2017-08-11T16:45:17.429Z,7.60
2017-08-11T16:47:45.038Z,8.40
2017-08-11T16:50:12.644Z,8.10
2017-08-11T16:52:40.288Z,8.17
2017-08-11T16:55:07.883Z,7.77
2017-08-11T16:57:35.474Z,8.63
2017-08-11T17:00:03.116Z,10.27
2017-08-11T17:02:30.727Z,11.53
2017-08-11T17:04:58.325Z,12.10
2017-08-11T17:07:25.951Z,11.80
2017-08-11T17:09:53.572Z,14.07
2017-08-11T17:12:21.199Z,12.53
2017-08-11T17:14:48.883Z,11.03
2017-08-11T17:17:16.498Z,11.23
2017-08-11T17:19:44.106Z,9.97
2017-08-11T17:22:11.761Z,11.00
2017-08-11T17:24:39.368Z,11.80
2017-08-11T17:27:06.993Z,10.53
2017-08-11T17:29:34.652Z,11.30
2017-08-11T17:32:02.291Z,9.33
2017-08-11T17:34:29.957Z,10.63
2017-08-11T17:36:57.601Z,11.03
2017-08-11T17:39:25.267Z,11.83
2017-08-11T17:41:52.891Z,12.33
2017-08-11T17:44:20.537Z,11.27
2017-08-11T17:46:48.151Z,14.43
2017-08-11T17:49:15.780Z,12.77
2017-08-11T17:51:43.450Z,12.20
2017-08-11T17:54:11.055Z,13.77
2017-08-11T17:56:38.653Z,17.50
2017-08-11T17:59:06.321Z,13.00
2017-08-11T18:01:33.965Z,12.47
2017-08-11T18:04:01.592Z,12.27
2017-08-11T18:06:29.260Z,11.47
2017-08-11T18:08:56.872Z,12.60
2017-08-11T18:11:24.494Z,13.23
2017-08-11T18:13:52.127Z,9.73
2017-08-11T18:16:19.729Z,11.00
2017-08-11T18:18:47.349Z,12.40
2017-08-11T18:21:15.007Z,12.30
2017-08-11T18:23:42.604Z,10.80
2017-08-11T18:26:10.205Z,13.03
2017-08-11T18:28:37.830Z,13.57
2017-08-11T18:31:05.456Z,12.47
2017-08-11T18:33:33.096Z,12.00
2017-08-11T18:36:00.766Z,12.10
2017-08-11T18:38:28.383Z,13.57
2017-08-11T18:40:55.994Z,10.87
2017-08-11T18:43:23.661Z,14.23
2017-08-11T18:45:51.273Z,12.27
2017-08-11T18:48:18.881Z,12.40
2017-08-11T18:50:46.590Z,14.57
2017-08-11T18:53:14.207Z,14.20
2017-08-11T18:55:41.828Z,11.03
2017-08-11T18:58:09.485Z,12.23
2017-08-11T19:00:37.118Z,11.20
2017-08-11T19:03:04.767Z,11.10
2017-08-11T19:05:32.413Z,9.30
2017-08-11T19:08:00.035Z,10.03
2017-08-11T19:10:27.681Z,9.63
2017-08-11T19:12:55.325Z,10.43
2017-08-11T19:15:22.937Z,8.60
2017-08-11T19:17:50.545Z,10.30
2017-08-11T19:20:18.195Z,9.23
2017-08-11T19:22:45.856Z,9.93
2017-08-11T19:25:13.468Z,10.23
2017-08-11T19:27:41.231Z,9.67
2017-08-11T19:30:08.845Z,10.37
2017-08-11T19:32:36.474Z,12.20
2017-08-11T19:35:04.204Z,8.77
2017-08-11T19:37:31.836Z,10.03
2017-08-11T19:39:59.437Z,9.13
2017-08-11T19:42:27.087Z,8.13
2017-08-11T19:44:54.696Z,8.77
2017-08-11T19:47:22.307Z,9.40
2017-08-11T19:49:49.969Z,9.03
2017-08-11T19:52:17.573Z,7.83
2017-08-11T19:54:45.180Z,8.70
2017-08-11T19:57:12.845Z,9.70
2017-08-11T19:59:40.450Z,9.83
2017-08-11T20:02:08.055Z,8.97
2017-08-11T20:04:35.686Z,9.00
2017-08-11T20:07:03.299Z,8.87
2017-08-11T20:09:30.916Z,9.20
2017-08-11T20:11:59.350Z,9.20
2017-08-11T20:14:26.988Z,9.40
2017-08-11T20:16:54.644Z,10.00
2017-08-11T20:19:22.298Z,10.00
2017-08-11T20:21:49.937Z,9.73
2017-08-11T20:24:17.541Z,9.47
2017-08-11T20:26:45.190Z,9.27
2017-08-11T20:29:12.785Z,10.00
2017-08-11T20:31:40.373Z,9.67
2017-08-11T20:34:08.044Z,9.60
2017-08-11T20:36:35.671Z,9.53
2017-08-11T20:39:03.360Z,10.47
2017-08-11T20:41:31.007Z,11.13
2017-08-11T20:43:58.634Z,10.40
2017-08-11T20:46:26.239Z,9.77
2017-08-11T20:48:53.900Z,10.60
2017-08-11T20:51:21.498Z,11.20
2017-08-11T20:53:49.109Z,12.70
2017-08-11T20:56:16.768Z,12.80
2017-08-11T20:58:44.379Z,12.33
2017-08-11T21:01:11.998Z,11.70
2017-08-11T21:03:39.645Z,11.27
2017-08-11T21:06:07.256Z,9.87
2017-08-11T21:08:34.920Z,12.07
2017-08-11T21:11:02.571Z,11.80
2017-08-11T21:13:30.259Z,11.67
2017-08-11T21:15:57.906Z,12.70
2017-08-11T21:18:25.779Z,11.77
2017-08-11T21:20:53.732Z,12.53
2017-08-11T21:23:21.426Z,12.83
2017-08-11T21:25:49.147Z,13.80
2017-08-11T21:28:17.166Z,13.87
2017-08-11T21:30:44.881Z,12.53
2017-08-11T21:33:12.696Z,14.37
2017-08-11T21:35:40.538Z,13.83
2017-08-11T21:38:08.534Z,15.67
2017-08-11T21:40:36.195Z,14.80
2017-08-11T21:43:03.802Z,14.83
2017-08-11T21:45:31.423Z,14.87
2017-08-11T21:47:59.057Z,15.87
2017-08-11T21:50:26.666Z,15.23
2017-08-11T21:52:54.266Z,14.93
2017-08-11T21:55:21.927Z,16.00
2017-08-11T21:57:49.529Z,16.47
2017-08-11T22:00:17.155Z,14.07
2017-08-11T22:02:44.807Z,15.63
2017-08-11T22:05:12.415Z,14.37
2017-08-11T22:07:40.164Z,14.47
2017-08-11T22:10:08.106Z,13.07
2017-08-11T22:12:36.046Z,14.00
2017-08-11T22:15:03.864Z,14.47
2017-08-11T22:17:31.632Z,13.60
2017-08-11T22:19:59.495Z,16.13
2017-08-11T22:22:27.343Z,14.90
2017-08-11T22:24:55.018Z,14.70
2017-08-11T22:27:22.749Z,15.23
2017-08-11T22:29:50.616Z,18.20
2017-08-11T22:32:18.580Z,17.37
2017-08-11T22:34:46.496Z,14.70
2017-08-11T22:37:14.214Z,14.43
2017-08-11T22:39:42.409Z,14.40
2017-08-11T22:42:10.303Z,16.60
2017-08-11T22:44:38.163Z,16.00
2017-08-11T22:47:05.825Z,15.50
2017-08-11T22:49:33.513Z,14.00
2017-08-11T22:52:01.271Z,14.80
2017-08-11T22:54:29.227Z,13.97
2017-08-11T22:56:56.885Z,17.47
2017-08-11T22:59:24.624Z,14.83
2017-08-11T23:01:52.612Z,16.00
2017-08-11T23:04:20.358Z,17.87
2017-08-11T23:06:48.322Z,13.57
2017-08-11T23:09:16.062Z,13.80
2017-08-11T23:11:43.952Z,13.47
2017-08-11T23:14:11.698Z,13.50
2017-08-11T23:16:39.517Z,15.00
2017-08-11T23:19:07.290Z,14.07
2017-08-11T23:21:35.152Z,12.70
2017-08-11T23:24:03.004Z,13.33
2017-08-11T23:26:30.857Z,15.90
2017-08-11T23:28:58.748Z,11.90
2017-08-11T23:31:26.611Z,13.23
2017-08-11T23:33:54.274Z,14.00
2017-08-11T23:36:22.127Z,12.10
2017-08-11T23:38:49.870Z,12.47
2017-08-11T23:41:17.669Z,12.00
2017-08-11T23:43:45.502Z,12.47
2017-08-11T23:46:13.247Z,14.27
2017-08-11T23:48:41.271Z,13.73
2017-08-11T23:51:09.344Z,13.47
2017-08-11T23:53:37.395Z,15.90
2017-08-11T23:56:05.282Z,14.23
2017-08-11T23:58:33.008Z,15.33
